Haaren, Netherlands
Current Conditions -  °F | °C
As of 7:55 AM on Saturday 25 Oct 2014 (Local Time) from EHGR Reporting Station
Haze Haze  
Wind Chill: 55°   Ceiling: 400
Heat Index: 55°   Visibility: 1.9mi
Dew Point: 54°   Wind: 6mph
Humidity: 94%   Direction: 220°SW
Pressure: 30"   Gusts: NA
Location:  51.6°N, 5.22°E
Report Text: EHGR 250555Z AUTO 22005KT 3100 BR BKN004 OVC005 13/12 Q1016 YLO
Loading
Personal Weather Stations






























Interactive Weather Map
Tropical Storm Tracking
New forecast layout! Learn more

10-Day Weather Forecast

Advertisements
Track Severe Weather on mobile